Aérodrome :
LOGIN :

S'inscrire | Disclaimer

   EN    FR    IT 

 










Légende :    VFR   VFR Marginal   IFR   IFR Intensif   IFR Très Intensif
Visi : 
Plafond : 
>= 8 km
>= 3000ft
5 à 8 km
1000 à 3000 ft
1500m à 5 km
500 à 1000 ft
800 à 1500m
200 à 500 ft
< 800m
< 200 ft
Symboles :   Orages  Brouillard  Fortes neiges  Fortes précipitations  Vent > 20 kt
SIGMETs :   Divers  Orages  Givrage  Turbulence  Onde Orograph.  Cendres Volcan.






- Altitude de l'aérodrome : 90 ft
- Code IATA : NTE


LFRS - Nantes

DERNIER METAR :
  • 250130Z AUTO 02005KT 350V060 CAVOK 18/15 Q1014 NOSIG

METARs EXPIRÉS :
  • 250100Z AUTO 01005KT CAVOK 17/15 Q1014 NOSIG
  • 250030Z AUTO 02003KT 340V050 CAVOK 18/14 Q1014 NOSIG
  • 250000Z AUTO 01004KT CAVOK 18/14 Q1014 NOSIG
  • 242330Z AUTO 01003KT CAVOK 18/14 Q1014 NOSIG
  • 242300Z AUTO 01003KT CAVOK 18/14 Q1015 NOSIG
  • 242230Z AUTO 36003KT CAVOK 19/14 Q1015 NOSIG
  • 242200Z AUTO 36002KT CAVOK 20/14 Q1015 NOSIG
  • 242130Z AUTO 03003KT CAVOK 20/14 Q1015 NOSIG
  • 242100Z AUTO 36003KT CAVOK 20/14 Q1015 NOSIG

TAF TAF LFRS
Valide du 25 à 00h jusqu'au 26 à 06h UTC


242300Z 2500/2606 03005KT CAVOK
ATIS : +33 2 40 05 12 74



MET'MAP, la Météo Aéronautique d'un coup d'oeil ! - Copyright ORBIFLY Décembre 2007 - Disclaimer

ORBIFLY MET'MAP TEAM :

Programmation & Développement : Alexandra Zaïnal
Sur une idée originale de : Baudouin d'Aumeries
Soutien technique & logistique : Manuel Goepfert
Assistance : Marc-Olivier Méhu




SOURCES & CREDITS :

   NOAA